createdAt,value
2023-01-22T00:01:50.806Z,1.50
2023-01-22T00:04:43.834Z,1.50
2023-01-22T00:07:41.082Z,1.50
2023-01-22T00:10:15.985Z,1.50
2023-01-22T00:12:55.588Z,1.60
2023-01-22T00:15:37.580Z,1.50
2023-01-22T00:18:12.294Z,1.50
2023-01-22T00:20:58.073Z,1.50
2023-01-22T00:23:35.371Z,1.40
2023-01-22T00:26:11.527Z,1.40
2023-01-22T00:28:49.858Z,1.40
2023-01-22T00:31:28.679Z,1.40
2023-01-22T00:34:02.057Z,1.40
2023-01-22T00:36:56.217Z,1.40
2023-01-22T00:39:38.061Z,1.40
2023-01-22T00:42:24.520Z,1.40
2023-01-22T00:45:02.985Z,1.40
2023-01-22T00:47:42.138Z,1.40
2023-01-22T00:50:29.408Z,1.40
2023-01-22T00:53:01.807Z,1.40
2023-01-22T00:56:00.506Z,1.40
2023-01-22T00:58:40.394Z,1.40
2023-01-22T01:01:16.286Z,1.40
2023-01-22T01:03:52.245Z,1.30
2023-01-22T01:06:27.010Z,1.40
2023-01-22T01:09:04.256Z,1.40
2023-01-22T01:11:47.916Z,1.50
2023-01-22T01:14:23.614Z,1.40
2023-01-22T01:17:04.403Z,1.30
2023-01-22T01:19:40.251Z,1.40
2023-01-22T01:22:16.215Z,1.40
2023-01-22T01:24:59.165Z,1.40
2023-01-22T01:27:38.026Z,1.40
2023-01-22T01:30:14.615Z,1.40
2023-01-22T01:32:50.163Z,1.50
2023-01-22T01:35:30.488Z,1.40
2023-01-22T01:38:09.410Z,1.40
2023-01-22T01:40:47.255Z,1.50
2023-01-22T01:43:24.986Z,1.50
2023-01-22T01:46:00.910Z,1.50
2023-01-22T01:48:36.041Z,1.50
2023-01-22T01:51:14.606Z,1.50
2023-01-22T01:53:51.736Z,1.40
2023-01-22T01:56:31.171Z,1.40
2023-01-22T01:59:13.302Z,1.40
2023-01-22T02:01:49.523Z,1.40
2023-01-22T02:04:24.058Z,1.40
2023-01-22T02:06:57.304Z,1.40
2023-01-22T02:09:37.690Z,1.40
2023-01-22T02:12:26.076Z,1.40
2023-01-22T02:15:07.938Z,1.40
2023-01-22T02:20:45.250Z,1.40
2023-01-22T02:23:24.989Z,1.40
2023-01-22T02:26:09.911Z,1.40
2023-01-22T02:28:44.413Z,1.40
2023-01-22T02:37:44.259Z,1.40
2023-01-22T02:40:19.037Z,1.40
2023-01-22T02:42:57.967Z,1.40
2023-01-22T02:45:32.854Z,1.50
2023-01-22T02:48:12.409Z,1.50
2023-01-22T02:50:54.112Z,1.50
2023-01-22T02:53:40.326Z,1.50
2023-01-22T02:56:17.692Z,1.50
2023-01-22T02:58:55.137Z,1.50
2023-01-22T03:01:30.486Z,1.50
2023-01-22T03:04:11.804Z,1.50
2023-01-22T03:06:46.184Z,1.50
2023-01-22T03:09:26.395Z,1.60
2023-01-22T03:12:01.888Z,1.60
2023-01-22T03:14:52.347Z,1.60
2023-01-22T03:17:48.421Z,1.60
2023-01-22T03:20:36.764Z,1.60
2023-01-22T03:23:13.977Z,1.60
2023-01-22T03:26:00.322Z,1.60
2023-01-22T03:28:36.746Z,1.60
2023-01-22T03:31:34.159Z,1.60
2023-01-22T03:34:25.786Z,1.60
2023-01-22T03:37:04.594Z,1.60
2023-01-22T03:39:51.964Z,1.70
2023-01-22T03:42:38.550Z,1.60
2023-01-22T03:45:25.647Z,1.60
2023-01-22T03:51:51.538Z,1.60
2023-01-22T03:54:26.672Z,1.60
2023-01-22T03:57:08.110Z,1.60
2023-01-22T03:59:50.227Z,1.60
2023-01-22T04:02:25.784Z,1.60
2023-01-22T04:05:33.660Z,1.60
2023-01-22T04:11:09.971Z,1.60
2023-01-22T04:13:47.704Z,1.60
2023-01-22T04:16:58.397Z,1.60
2023-01-22T04:20:24.029Z,1.60
2023-01-22T04:23:31.993Z,1.60
2023-01-22T04:26:29.473Z,1.60
2023-01-22T04:29:16.104Z,1.50
2023-01-22T04:31:52.551Z,1.50
2023-01-22T04:37:48.357Z,1.50
2023-01-22T04:43:34.623Z,1.50
2023-01-22T04:46:24.718Z,1.50
2023-01-22T04:48:59.186Z,1.50
2023-01-22T04:51:44.671Z,1.50
2023-01-22T04:54:38.099Z,1.50
2023-01-22T04:57:12.897Z,1.50
2023-01-22T04:59:47.325Z,1.50
2023-01-22T05:02:19.983Z,1.50
2023-01-22T05:05:19.137Z,1.50
2023-01-22T05:08:02.838Z,1.40
2023-01-22T05:11:00.190Z,1.50
2023-01-22T05:13:45.508Z,1.40
2023-01-22T05:16:48.282Z,1.40
2023-01-22T05:19:51.032Z,1.50
2023-01-22T05:32:32.688Z,1.40
2023-01-22T05:35:06.913Z,1.40
2023-01-22T05:47:37.398Z,1.30
2023-01-22T05:50:44.417Z,1.30
2023-01-22T05:53:50.323Z,1.30
2023-01-22T05:56:50.486Z,1.30
2023-01-22T06:02:29.104Z,1.30
2023-01-22T06:05:36.088Z,1.30
2023-01-22T06:08:20.631Z,1.30
2023-01-22T06:11:05.212Z,1.40
2023-01-22T06:13:56.405Z,1.40
2023-01-22T06:17:00.778Z,1.40
2023-01-22T06:19:52.037Z,1.30
2023-01-22T06:22:26.380Z,1.40
2023-01-22T06:25:24.057Z,1.50
2023-01-22T06:28:45.755Z,1.50
2023-01-22T06:31:33.543Z,1.50
2023-01-22T06:34:46.303Z,1.50
2023-01-22T06:37:27.150Z,1.50
2023-01-22T06:40:27.007Z,1.50
2023-01-22T06:43:10.348Z,1.50
2023-01-22T06:45:54.991Z,1.50
2023-01-22T06:48:50.137Z,1.50
2023-01-22T06:51:33.038Z,1.40
2023-01-22T06:54:14.500Z,1.50
2023-01-22T06:57:28.846Z,1.50
2023-01-22T07:00:23.080Z,1.50
2023-01-22T07:03:17.804Z,1.40
2023-01-22T07:06:03.782Z,1.40
2023-01-22T07:08:46.784Z,1.40
2023-01-22T07:11:35.726Z,1.40
2023-01-22T07:17:20.526Z,1.40
2023-01-22T07:20:07.379Z,1.40
2023-01-22T07:22:51.256Z,1.40
2023-01-22T07:28:58.690Z,1.40
2023-01-22T07:31:56.583Z,1.40
2023-01-22T07:34:48.103Z,1.50
2023-01-22T07:37:36.331Z,1.50
2023-01-22T07:47:06.669Z,1.50
2023-01-22T07:50:17.746Z,1.60
2023-01-22T07:53:22.035Z,1.50
2023-01-22T07:56:00.674Z,1.60
2023-01-22T08:01:51.506Z,1.60
2023-01-22T08:04:28.971Z,1.70
2023-01-22T08:10:17.619Z,1.70
2023-01-22T08:12:58.570Z,1.70
2023-01-22T08:16:20.986Z,1.70
2023-01-22T08:19:06.239Z,1.70
2023-01-22T08:21:59.953Z,1.70
2023-01-22T08:24:57.375Z,1.70
2023-01-22T08:27:38.005Z,1.70
2023-01-22T08:30:21.985Z,1.70
2023-01-22T08:36:15.836Z,1.80
2023-01-22T08:39:17.213Z,1.80
2023-01-22T08:48:32.513Z,1.90
2023-01-22T08:51:51.224Z,1.80
2023-01-22T08:54:41.260Z,1.80
2023-01-22T09:06:53.217Z,1.90
2023-01-22T09:12:53.020Z,1.90
2023-01-22T09:19:14.977Z,1.90
2023-01-22T09:22:13.792Z,1.90
2023-01-22T09:28:19.416Z,2.00
2023-01-22T09:31:00.148Z,2.00
2023-01-22T09:33:54.744Z,2.00
2023-01-22T09:36:41.601Z,2.00
2023-01-22T09:55:50.886Z,2.10
2023-01-22T09:58:36.048Z,2.20
2023-01-22T10:11:57.590Z,2.20
2023-01-22T10:14:44.823Z,2.20
2023-01-22T10:23:47.104Z,2.20
2023-01-22T10:27:47.655Z,2.20
2023-01-22T10:47:53.252Z,2.30
2023-01-22T10:50:35.204Z,2.20
2023-01-22T10:53:24.049Z,2.20
2023-01-22T11:02:21.346Z,2.20
2023-01-22T11:05:05.579Z,2.20
2023-01-22T11:07:43.326Z,2.10
2023-01-22T11:10:23.464Z,2.10
2023-01-22T11:13:05.422Z,2.10
2023-01-22T11:15:41.117Z,2.10
2023-01-22T11:18:32.501Z,2.10
2023-01-22T11:21:08.031Z,2.10
2023-01-22T11:23:56.899Z,2.10
2023-01-22T11:26:46.012Z,2.10
2023-01-22T11:29:26.792Z,2.10
2023-01-22T11:32:22.148Z,2.10
2023-01-22T11:35:14.845Z,2.10
2023-01-22T11:40:55.964Z,2.10
2023-01-22T11:43:45.573Z,2.10
2023-01-22T11:56:05.864Z,2.00
2023-01-22T11:59:07.832Z,2.00
2023-01-22T12:05:00.630Z,2.00
2023-01-22T12:08:22.658Z,2.10
2023-01-22T12:11:36.851Z,2.10
2023-01-22T12:23:17.841Z,2.30
2023-01-22T12:25:53.086Z,2.40
2023-01-22T12:32:04.859Z,2.40
2023-01-22T12:37:53.705Z,2.40
2023-01-22T12:55:39.120Z,2.40
2023-01-22T13:01:24.153Z,2.40
2023-01-22T13:16:37.008Z,2.50
2023-01-22T13:22:27.339Z,2.50
2023-01-22T13:49:56.476Z,2.40
2023-01-22T13:56:02.795Z,2.40
2023-01-22T14:01:39.937Z,2.50
2023-01-22T14:07:20.445Z,2.50
2023-01-22T14:10:18.989Z,2.50
2023-01-22T14:13:12.810Z,2.50
2023-01-22T14:15:57.817Z,2.50
2023-01-22T14:21:21.236Z,2.40
2023-01-22T14:33:16.857Z,2.30
2023-01-22T14:39:30.069Z,2.30
2023-01-22T14:47:57.323Z,2.20
2023-01-22T14:50:43.097Z,2.20
2023-01-22T14:53:19.550Z,2.20
2023-01-22T14:55:54.131Z,2.20
2023-01-22T14:58:26.974Z,2.20
2023-01-22T15:00:59.536Z,2.20
2023-01-22T15:03:33.877Z,2.20
2023-01-22T15:06:09.186Z,2.20
2023-01-22T15:08:41.473Z,2.20
2023-01-22T15:11:16.568Z,2.10
2023-01-22T15:13:49.574Z,2.10
2023-01-22T15:16:24.183Z,2.10
2023-01-22T15:18:58.171Z,2.10
2023-01-22T15:21:33.913Z,2.10
2023-01-22T15:24:09.380Z,2.10
2023-01-22T15:26:46.345Z,2.10
2023-01-22T15:29:17.967Z,2.20
2023-01-22T15:31:51.935Z,2.10
2023-01-22T15:34:25.298Z,2.20
2023-01-22T15:37:03.263Z,2.20
2023-01-22T15:39:41.126Z,2.20
2023-01-22T15:42:14.864Z,2.20
2023-01-22T15:44:47.649Z,2.20
2023-01-22T15:47:21.841Z,2.20
2023-01-22T15:49:55.217Z,2.20
2023-01-22T15:55:24.011Z,2.20
2023-01-22T15:58:02.153Z,2.20
2023-01-22T16:00:40.183Z,2.20
2023-01-22T16:03:13.998Z,2.10
2023-01-22T16:05:53.269Z,2.10
2023-01-22T16:08:29.500Z,2.10
2023-01-22T16:11:10.858Z,2.10
2023-01-22T16:13:52.515Z,2.10
2023-01-22T16:16:25.974Z,2.10
2023-01-22T16:18:58.140Z,2.10
2023-01-22T16:21:31.358Z,2.00
2023-01-22T16:24:05.742Z,2.00
2023-01-22T16:26:41.142Z,2.00
2023-01-22T16:29:15.580Z,2.00
2023-01-22T16:34:57.045Z,2.00
2023-01-22T16:37:44.598Z,2.00
2023-01-22T16:43:47.549Z,2.00
2023-01-22T16:52:32.989Z,2.00
2023-01-22T17:15:03.184Z,1.80
2023-01-22T17:18:21.263Z,1.70
2023-01-22T17:21:42.229Z,1.80
2023-01-22T17:49:45.468Z,1.50
2023-01-22T17:52:56.731Z,1.60
2023-01-22T18:05:00.960Z,1.60
2023-01-22T18:13:35.138Z,1.60
2023-01-22T18:16:28.621Z,1.60
2023-01-22T18:31:36.987Z,1.60
2023-01-22T18:34:41.959Z,1.60
2023-01-22T18:37:43.177Z,1.60
2023-01-22T18:46:44.526Z,1.70
2023-01-22T18:50:15.649Z,1.70
2023-01-22T18:53:22.289Z,1.70
2023-01-22T18:56:00.927Z,1.70
2023-01-22T18:58:54.482Z,1.70
2023-01-22T19:01:44.337Z,1.70
2023-01-22T19:04:45.960Z,1.70
2023-01-22T19:14:25.888Z,1.70
2023-01-22T19:20:27.830Z,1.70
2023-01-22T19:23:17.917Z,1.70
2023-01-22T19:26:17.202Z,1.70
2023-01-22T19:35:33.530Z,1.70
2023-01-22T19:41:27.637Z,1.80
2023-01-22T19:51:17.323Z,1.80
2023-01-22T19:59:54.752Z,1.80
2023-01-22T20:02:35.854Z,1.80
2023-01-22T20:05:52.979Z,1.80
2023-01-22T20:08:37.684Z,1.80
2023-01-22T20:11:51.620Z,1.80
2023-01-22T20:14:47.191Z,1.80
2023-01-22T20:17:30.577Z,1.80
2023-01-22T20:36:11.439Z,1.80
2023-01-22T20:39:09.347Z,1.90
2023-01-22T20:42:16.118Z,1.90
2023-01-22T20:45:31.694Z,1.80
2023-01-22T20:48:15.634Z,1.80
2023-01-22T20:51:15.188Z,1.80
2023-01-22T20:53:50.687Z,1.80
2023-01-22T20:56:51.166Z,1.80
2023-01-22T21:03:15.921Z,1.80
2023-01-22T21:05:55.791Z,1.80
2023-01-22T21:08:50.987Z,1.80
2023-01-22T21:11:35.875Z,1.80
2023-01-22T21:14:33.597Z,1.80
2023-01-22T21:17:22.174Z,1.80
2023-01-22T21:20:03.862Z,1.80
2023-01-22T21:23:03.595Z,1.80
2023-01-22T21:31:40.521Z,1.70
2023-01-22T21:34:24.452Z,1.80
2023-01-22T21:37:33.825Z,1.80
2023-01-22T21:54:05.015Z,1.80
2023-01-22T22:58:27.552Z,1.90
2023-01-22T23:18:01.174Z,2.10
2023-01-22T23:20:50.561Z,2.10
2023-01-22T23:23:36.684Z,2.10
2023-01-22T23:26:13.126Z,2.10
2023-01-22T23:28:47.979Z,2.10
2023-01-22T23:31:28.322Z,2.10
2023-01-22T23:34:17.414Z,2.10
2023-01-22T23:36:57.910Z,2.00
2023-01-22T23:43:09.070Z,2.00
2023-01-22T23:45:54.370Z,2.00
2023-01-22T23:55:03.195Z,2.10
2023-01-22T23:58:33.775Z,2.10
